createdAt,value
2019-04-28T00:00:53.579Z,34.10
2019-04-28T00:03:22.172Z,33.43
2019-04-28T00:05:51.368Z,31.30
2019-04-28T00:08:20.824Z,24.93
2019-04-28T00:10:49.490Z,21.47
2019-04-28T00:13:17.932Z,28.13
2019-04-28T00:15:46.387Z,40.67
2019-04-28T00:18:14.819Z,40.43
2019-04-28T00:20:44.940Z,29.50
2019-04-28T00:23:32.902Z,32.10
2019-04-28T00:26:21.058Z,25.83
2019-04-28T00:28:51.016Z,31.03
2019-04-28T00:31:21.252Z,33.87
2019-04-28T00:33:51.420Z,20.83
2019-04-28T00:36:21.599Z,27.10
2019-04-28T00:38:51.438Z,38.40
2019-04-28T00:41:21.359Z,27.97
2019-04-28T00:43:51.852Z,23.33
2019-04-28T00:46:21.720Z,20.40
2019-04-28T00:48:50.891Z,27.07
2019-04-28T00:51:21.245Z,34.00
2019-04-28T00:53:50.921Z,26.33
2019-04-28T00:56:19.475Z,33.00
2019-04-28T00:58:48.014Z,30.13
2019-04-28T01:01:18.175Z,24.30
2019-04-28T01:03:46.642Z,29.90
2019-04-28T01:06:15.083Z,28.70
2019-04-28T01:08:43.542Z,42.47
2019-04-28T01:11:11.990Z,35.20
2019-04-28T01:13:41.989Z,21.87
2019-04-28T01:16:12.211Z,29.20
2019-04-28T01:18:54.219Z,22.93
2019-04-28T01:21:24.310Z,26.63
2019-04-28T01:23:52.775Z,42.57
2019-04-28T01:26:21.223Z,18.83
2019-04-28T01:28:49.751Z,40.07
2019-04-28T01:31:21.255Z,33.87
2019-04-28T01:34:03.361Z,30.70
2019-04-28T01:36:32.395Z,29.97
2019-04-28T01:39:00.843Z,27.53
2019-04-28T01:41:29.723Z,34.60
2019-04-28T01:44:00.097Z,23.17
2019-04-28T01:46:29.804Z,27.57
2019-04-28T01:48:59.908Z,26.27
2019-04-28T01:51:30.362Z,27.50
2019-04-28T01:54:00.163Z,31.00
2019-04-28T01:56:30.301Z,31.10
2019-04-28T01:59:00.324Z,20.37
2019-04-28T02:01:30.194Z,24.73
2019-04-28T02:04:00.256Z,25.67
2019-04-28T02:06:29.990Z,33.10
2019-04-28T02:09:00.697Z,30.27
2019-04-28T02:11:29.571Z,32.40
2019-04-28T02:13:59.702Z,31.43
2019-04-28T02:16:29.615Z,40.13
2019-04-28T02:18:59.747Z,40.40
2019-04-28T02:21:46.435Z,39.20
2019-04-28T02:24:30.992Z,47.80
2019-04-28T02:27:00.836Z,25.13
2019-04-28T02:29:30.166Z,26.37
2019-04-28T02:32:02.044Z,29.50
2019-04-28T02:34:31.122Z,29.00
2019-04-28T02:37:01.611Z,27.83
2019-04-28T02:39:31.205Z,32.90
2019-04-28T02:42:01.463Z,33.57
2019-04-28T02:44:33.469Z,35.83
2019-04-28T02:47:00.924Z,33.17
2019-04-28T02:49:31.291Z,32.00
2019-04-28T02:52:07.343Z,28.80
2019-04-28T02:54:35.809Z,29.13
2019-04-28T02:57:04.316Z,27.40
2019-04-28T02:59:32.841Z,30.97
2019-04-28T03:02:01.289Z,35.53
2019-04-28T03:04:30.806Z,34.23
2019-04-28T03:07:01.359Z,37.43
2019-04-28T03:09:30.603Z,41.40
2019-04-28T03:12:01.496Z,36.47
2019-04-28T03:14:30.481Z,38.00
2019-04-28T03:17:00.801Z,59.60
2019-04-28T03:19:33.691Z,29.83
2019-04-28T03:22:01.369Z,37.50
2019-04-28T03:24:31.633Z,36.60
2019-04-28T03:27:07.634Z,34.63
2019-04-28T03:29:40.231Z,33.83
2019-04-28T03:32:30.412Z,27.47
2019-04-28T03:34:53.700Z,29.20
2019-04-28T03:37:21.560Z,28.57
2019-04-28T03:39:50.416Z,22.63
2019-04-28T03:42:21.609Z,29.30
2019-04-28T03:44:51.099Z,30.17
2019-04-28T03:47:21.193Z,24.70
2019-04-28T03:49:50.717Z,42.00
2019-04-28T03:52:21.162Z,33.63
2019-04-28T03:54:50.856Z,39.97
2019-04-28T03:57:21.522Z,30.70
2019-04-28T03:59:51.134Z,30.23
2019-04-28T04:02:23.022Z,39.93
2019-04-28T04:04:52.545Z,25.93
2019-04-28T04:07:21.610Z,30.50
2019-04-28T04:09:57.811Z,29.87
2019-04-28T04:12:33.596Z,25.47
2019-04-28T04:15:21.196Z,48.47
2019-04-28T04:18:01.269Z,27.93
2019-04-28T04:20:31.045Z,42.37
2019-04-28T04:23:01.487Z,22.77
2019-04-28T04:25:31.342Z,42.03
2019-04-28T04:28:00.422Z,35.97
2019-04-28T04:30:31.193Z,25.10
2019-04-28T04:33:01.279Z,25.33
2019-04-28T04:35:31.508Z,37.37
2019-04-28T04:38:00.777Z,31.53
2019-04-28T04:40:31.713Z,36.83
2019-04-28T04:43:01.688Z,27.93
2019-04-28T04:45:30.529Z,33.90
2019-04-28T04:48:00.636Z,31.97
2019-04-28T04:50:31.306Z,42.97
2019-04-28T04:53:02.334Z,31.70
2019-04-28T04:55:30.922Z,39.37
2019-04-28T04:58:00.796Z,33.07
2019-04-28T05:00:40.504Z,34.70
2019-04-28T05:03:11.747Z,32.40
2019-04-28T05:05:41.842Z,27.77
2019-04-28T05:08:15.263Z,31.67
2019-04-28T05:10:40.458Z,41.03
2019-04-28T05:13:10.225Z,38.60
2019-04-28T05:15:40.086Z,41.87
2019-04-28T05:18:10.126Z,31.97
2019-04-28T05:20:40.340Z,35.80
2019-04-28T05:23:22.699Z,23.30
2019-04-28T05:25:51.165Z,45.30
2019-04-28T05:28:19.791Z,30.70
2019-04-28T05:30:50.126Z,32.53
2019-04-28T05:33:23.667Z,37.20
2019-04-28T05:35:54.584Z,25.60
2019-04-28T05:38:23.114Z,35.53
2019-04-28T05:40:51.582Z,32.70
2019-04-28T05:43:21.421Z,27.57
2019-04-28T05:45:49.958Z,28.90
2019-04-28T05:48:20.113Z,19.33
2019-04-28T05:50:50.214Z,29.23
2019-04-28T05:53:21.770Z,30.13
2019-04-28T05:55:54.694Z,20.70
2019-04-28T05:58:30.051Z,28.80
2019-04-28T06:01:00.344Z,26.20
2019-04-28T06:03:30.554Z,27.57
2019-04-28T06:05:59.939Z,30.83
2019-04-28T06:08:32.938Z,24.57
2019-04-28T06:11:03.043Z,22.63
2019-04-28T06:13:31.470Z,20.50
2019-04-28T06:15:59.990Z,16.30
2019-04-28T06:18:28.464Z,28.00
2019-04-28T06:20:56.906Z,23.93
2019-04-28T06:23:25.358Z,56.53
2019-04-28T06:25:53.793Z,30.40
2019-04-28T06:28:22.258Z,20.77
2019-04-28T06:30:50.698Z,30.43
2019-04-28T06:33:19.159Z,25.77
2019-04-28T06:35:47.599Z,25.33
2019-04-28T06:38:16.055Z,20.43
2019-04-28T06:40:44.506Z,20.53
2019-04-28T06:43:12.974Z,18.63
2019-04-28T06:45:41.453Z,34.07
2019-04-28T06:48:09.958Z,23.13
2019-04-28T06:50:38.392Z,15.27
2019-04-28T06:53:06.882Z,18.50
2019-04-28T06:55:35.319Z,23.30
2019-04-28T06:58:03.771Z,18.90
2019-04-28T07:00:32.214Z,17.90
2019-04-28T07:03:00.660Z,11.67
2019-04-28T07:05:29.184Z,15.93
2019-04-28T07:07:57.630Z,10.80
2019-04-28T07:10:26.071Z,11.70
2019-04-28T07:12:54.594Z,11.83
2019-04-28T07:15:23.294Z,9.80
2019-04-28T07:17:51.726Z,9.63
2019-04-28T07:20:24.519Z,10.37
2019-04-28T07:22:52.979Z,15.50
2019-04-28T07:25:21.422Z,10.07
2019-04-28T07:27:49.878Z,23.90
2019-04-28T07:30:18.464Z,8.60
2019-04-28T07:32:46.902Z,5.47
2019-04-28T07:35:15.360Z,4.53
2019-04-28T07:37:43.803Z,13.53
2019-04-28T07:40:12.336Z,11.93
2019-04-28T07:42:40.772Z,5.90
2019-04-28T07:45:09.457Z,8.33
2019-04-28T07:47:37.971Z,15.30
2019-04-28T07:50:06.891Z,14.50
2019-04-28T07:52:52.078Z,14.10
2019-04-28T07:55:20.538Z,5.30
2019-04-28T07:57:48.995Z,10.20
2019-04-28T08:00:21.856Z,10.40
2019-04-28T08:02:50.310Z,5.23
2019-04-28T08:05:18.753Z,4.27
2019-04-28T08:07:47.212Z,5.00
2019-04-28T08:10:15.659Z,17.03
2019-04-28T08:12:44.129Z,11.23
2019-04-28T08:15:12.619Z,10.77
2019-04-28T08:17:41.135Z,17.43
2019-04-28T08:20:09.650Z,13.47
2019-04-28T08:22:38.188Z,5.07
2019-04-28T08:25:07.146Z,11.30
2019-04-28T08:27:35.607Z,6.93
2019-04-28T08:30:04.684Z,15.30
2019-04-28T08:32:46.623Z,7.83
2019-04-28T08:35:15.072Z,6.40
2019-04-28T08:37:43.538Z,13.23
2019-04-28T08:40:12.042Z,10.27
2019-04-28T08:42:40.578Z,9.20
2019-04-28T08:45:09.366Z,6.97
2019-04-28T08:47:37.803Z,13.40
2019-04-28T08:50:06.478Z,11.23
2019-04-28T08:52:35.003Z,16.47
2019-04-28T08:55:07.103Z,11.20
2019-04-28T08:57:35.617Z,18.17
2019-04-28T09:00:06.771Z,10.17
2019-04-28T09:02:35.596Z,6.30
2019-04-28T09:05:04.778Z,8.23
2019-04-28T09:07:33.221Z,14.63
2019-04-28T09:10:01.659Z,12.53
2019-04-28T09:12:30.098Z,12.50
2019-04-28T09:14:58.556Z,9.43
2019-04-28T09:17:27.000Z,10.10
2019-04-28T09:19:55.451Z,7.20
2019-04-28T09:22:23.897Z,9.63
2019-04-28T09:24:52.350Z,10.40
2019-04-28T09:27:20.793Z,12.30
2019-04-28T09:29:49.236Z,12.93
2019-04-28T09:32:17.675Z,8.13
2019-04-28T09:34:46.104Z,8.03
2019-04-28T09:37:14.544Z,11.47
2019-04-28T09:39:47.455Z,9.33
2019-04-28T09:42:32.451Z,9.47
2019-04-28T09:45:02.982Z,14.87
2019-04-28T09:47:31.510Z,9.07
2019-04-28T09:50:06.792Z,13.63
2019-04-28T09:52:35.253Z,8.43
2019-04-28T09:55:04.210Z,12.10
2019-04-28T09:57:32.675Z,11.50
2019-04-28T10:00:01.126Z,8.10
2019-04-28T10:02:29.580Z,19.23
2019-04-28T10:04:58.029Z,10.13
2019-04-28T10:07:26.478Z,11.60
2019-04-28T10:09:54.965Z,10.80
2019-04-28T10:12:27.215Z,14.80
2019-04-28T10:14:53.656Z,8.50
2019-04-28T10:17:22.133Z,16.43
2019-04-28T10:19:50.574Z,10.13
2019-04-28T10:22:19.034Z,14.43
2019-04-28T10:24:47.471Z,8.07
2019-04-28T10:27:15.924Z,12.67
2019-04-28T10:29:44.358Z,9.80
2019-04-28T10:32:12.939Z,14.33
2019-04-28T10:34:53.964Z,6.60
2019-04-28T10:37:12.480Z,12.17
2019-04-28T10:39:51.579Z,11.80
2019-04-28T10:42:20.040Z,12.53
2019-04-28T10:44:49.543Z,8.00
2019-04-28T10:47:18.202Z,5.33
2019-04-28T10:49:46.654Z,12.47
2019-04-28T10:52:15.153Z,4.20
2019-04-28T10:54:43.670Z,5.37
2019-04-28T10:57:12.117Z,10.40
2019-04-28T10:59:40.654Z,10.83
2019-04-28T11:02:09.170Z,12.40
2019-04-28T11:04:39.397Z,10.50
2019-04-28T11:07:10.028Z,4.77
2019-04-28T11:09:56.684Z,4.73
2019-04-28T11:12:26.776Z,8.87
2019-04-28T11:14:55.244Z,8.60
2019-04-28T11:17:25.170Z,7.77
2019-04-28T11:19:53.617Z,5.70
2019-04-28T11:22:22.148Z,4.00
2019-04-28T11:24:50.655Z,5.27
2019-04-28T11:27:20.277Z,3.63
2019-04-28T11:29:48.730Z,5.33
2019-04-28T11:32:17.259Z,10.13
2019-04-28T11:34:47.334Z,6.40
2019-04-28T11:37:15.799Z,7.20
2019-04-28T11:39:44.883Z,6.50
2019-04-28T11:42:13.389Z,4.37
2019-04-28T11:44:41.874Z,4.80
2019-04-28T11:47:11.979Z,8.33
2019-04-28T11:49:40.447Z,5.67
2019-04-28T11:52:08.881Z,7.23
2019-04-28T11:54:37.474Z,8.53
2019-04-28T11:57:05.923Z,3.90
2019-04-28T11:59:34.389Z,6.00
2019-04-28T12:02:03.235Z,2.40
2019-04-28T12:04:36.261Z,6.00
2019-04-28T12:07:05.713Z,4.60
2019-04-28T12:09:44.674Z,3.73
2019-04-28T12:12:20.455Z,4.87
2019-04-28T12:14:59.383Z,8.57
2019-04-28T12:17:38.287Z,5.67
2019-04-28T12:20:18.122Z,4.90
2019-04-28T12:22:46.564Z,6.63
2019-04-28T12:25:15.029Z,5.50
2019-04-28T12:27:43.487Z,6.27
2019-04-28T12:30:12.640Z,11.03
2019-04-28T12:32:41.086Z,9.80
2019-04-28T12:35:09.718Z,2.20
2019-04-28T12:37:38.155Z,9.33
2019-04-28T12:40:07.284Z,11.87
2019-04-28T12:42:35.722Z,4.77
2019-04-28T12:45:06.216Z,5.60
2019-04-28T12:47:34.670Z,3.30
2019-04-28T12:50:11.324Z,4.93
2019-04-28T12:52:39.759Z,8.10
2019-04-28T12:55:08.532Z,7.17
2019-04-28T12:57:36.974Z,9.57
2019-04-28T13:00:12.155Z,8.80
2019-04-28T13:02:58.267Z,5.90
2019-04-28T13:05:26.749Z,3.60
2019-04-28T13:07:55.256Z,2.80
2019-04-28T13:10:23.780Z,4.40
2019-04-28T13:12:52.221Z,1.30
2019-04-28T13:15:20.695Z,1.90
2019-04-28T13:17:49.131Z,1.90
2019-04-28T13:20:17.653Z,1.43
2019-04-28T13:22:46.088Z,3.17
2019-04-28T13:25:14.538Z,6.13
2019-04-28T13:27:42.976Z,1.53
2019-04-28T13:30:11.509Z,3.50
2019-04-28T13:32:39.960Z,4.20
2019-04-28T13:35:08.915Z,3.37
2019-04-28T13:37:37.373Z,3.23
2019-04-28T13:40:08.083Z,1.70
2019-04-28T13:42:36.544Z,1.70
2019-04-28T13:45:09.566Z,1.53
2019-04-28T13:47:38.081Z,4.00
2019-04-28T13:50:10.563Z,4.07
2019-04-28T13:52:39.025Z,3.80
2019-04-28T13:55:09.482Z,4.60
2019-04-28T13:57:37.999Z,1.60
2019-04-28T14:00:13.748Z,2.20
2019-04-28T14:02:59.889Z,2.67
2019-04-28T14:05:29.962Z,3.00
2019-04-28T14:07:58.505Z,3.27
2019-04-28T14:10:26.999Z,1.67
2019-04-28T14:12:55.459Z,2.77
2019-04-28T14:15:23.903Z,7.20
2019-04-28T14:17:52.425Z,6.40
2019-04-28T14:20:20.898Z,4.10
2019-04-28T14:22:49.406Z,4.10
2019-04-28T14:25:17.887Z,2.07
2019-04-28T14:27:46.433Z,2.47
2019-04-28T14:30:15.162Z,5.03
2019-04-28T14:32:43.723Z,2.03
2019-04-28T14:35:12.717Z,9.90
2019-04-28T14:37:41.265Z,1.43
2019-04-28T14:40:09.871Z,1.73
2019-04-28T14:42:38.409Z,9.23
2019-04-28T14:45:09.412Z,4.23
2019-04-28T14:47:37.932Z,2.30
2019-04-28T14:50:08.430Z,4.43
2019-04-28T14:52:37.025Z,1.30
2019-04-28T14:55:07.140Z,3.83
2019-04-28T14:57:35.594Z,3.43
2019-04-28T15:00:06.448Z,4.60
2019-04-28T15:02:51.446Z,11.33
2019-04-28T15:05:24.315Z,4.13
2019-04-28T15:08:12.333Z,3.93
2019-04-28T15:10:57.592Z,1.17
2019-04-28T15:13:26.812Z,2.53
2019-04-28T15:15:55.245Z,3.60
2019-04-28T15:18:23.683Z,3.80
2019-04-28T15:20:52.212Z,0.80
2019-04-28T15:23:20.687Z,1.40
2019-04-28T15:25:49.217Z,1.57
2019-04-28T15:28:17.995Z,6.20
2019-04-28T15:30:46.486Z,1.47
2019-04-28T15:33:15.203Z,4.30
2019-04-28T15:35:43.639Z,2.13
2019-04-28T15:38:12.202Z,2.40
2019-04-28T15:40:40.667Z,2.93
2019-04-28T15:43:09.111Z,1.33
2019-04-28T15:45:38.448Z,3.07
2019-04-28T15:48:06.907Z,2.50
2019-04-28T15:50:35.411Z,3.63
2019-04-28T15:53:03.862Z,3.83
2019-04-28T15:55:45.726Z,3.90
2019-04-28T15:58:31.935Z,2.50
2019-04-28T16:01:00.465Z,3.80
2019-04-28T16:03:28.908Z,2.93
2019-04-28T16:05:59.904Z,2.33
2019-04-28T16:08:27.631Z,1.17
2019-04-28T16:10:56.098Z,2.20
2019-04-28T16:13:24.542Z,5.40
2019-04-28T16:15:53.018Z,2.17
2019-04-28T16:18:21.464Z,1.70
2019-04-28T16:20:50.211Z,4.20
2019-04-28T16:23:18.727Z,1.40
2019-04-28T16:25:47.203Z,4.40
2019-04-28T16:28:15.701Z,5.87
2019-04-28T16:30:44.185Z,1.50
2019-04-28T16:33:12.622Z,5.70
2019-04-28T16:35:41.091Z,3.00
2019-04-28T16:38:09.530Z,6.47
2019-04-28T16:40:38.047Z,1.30
2019-04-28T16:43:06.490Z,5.37
2019-04-28T16:45:35.001Z,1.47
2019-04-28T16:48:03.438Z,4.20
2019-04-28T16:50:31.909Z,1.70
2019-04-28T16:53:00.450Z,2.67
2019-04-28T16:55:30.592Z,2.57
2019-04-28T16:58:00.675Z,4.00
2019-04-28T17:00:33.442Z,3.50
2019-04-28T17:03:01.977Z,5.67
2019-04-28T17:05:30.472Z,2.13
2019-04-28T17:07:58.913Z,2.77
2019-04-28T17:10:27.360Z,4.83
2019-04-28T17:12:55.884Z,2.67
2019-04-28T17:15:24.400Z,6.83
2019-04-28T17:17:52.846Z,7.83
2019-04-28T17:20:21.293Z,2.13
2019-04-28T17:22:49.835Z,2.80
2019-04-28T17:25:18.273Z,4.93
2019-04-28T17:27:47.227Z,3.33
2019-04-28T17:30:16.012Z,8.90
2019-04-28T17:32:44.479Z,6.03
2019-04-28T17:35:13.414Z,1.30
2019-04-28T17:37:41.882Z,3.20
2019-04-28T17:40:10.683Z,1.80
2019-04-28T17:42:39.151Z,5.60
2019-04-28T17:45:08.226Z,6.43
2019-04-28T17:47:36.752Z,3.00
2019-04-28T17:50:06.627Z,6.57
2019-04-28T17:52:35.092Z,2.63
2019-04-28T17:55:04.532Z,4.60
2019-04-28T17:57:32.997Z,6.17
2019-04-28T18:00:03.100Z,10.10
2019-04-28T18:02:33.170Z,3.13
2019-04-28T18:05:06.562Z,2.47
2019-04-28T18:07:36.655Z,3.23
2019-04-28T18:10:08.247Z,10.23
2019-04-28T18:12:36.683Z,5.77
2019-04-28T18:15:09.115Z,1.60
2019-04-28T18:17:39.262Z,2.20
2019-04-28T18:20:09.482Z,4.00
2019-04-28T18:22:37.922Z,4.33
2019-04-28T18:25:07.200Z,3.43
2019-04-28T18:27:35.666Z,13.97
2019-04-28T18:30:06.734Z,3.87
2019-04-28T18:32:52.058Z,5.30
2019-04-28T18:35:31.045Z,6.87
2019-04-28T18:38:04.122Z,5.37
2019-04-28T18:40:50.538Z,9.60
2019-04-28T18:43:23.396Z,8.67
2019-04-28T18:45:51.902Z,4.80
2019-04-28T18:48:20.382Z,2.60
2019-04-28T18:50:48.890Z,3.83
2019-04-28T18:53:17.334Z,5.10
2019-04-28T18:55:45.862Z,4.50
2019-04-28T18:58:14.307Z,4.53
2019-04-28T19:00:44.418Z,4.67
2019-04-28T19:03:12.914Z,3.93
2019-04-28T19:05:42.998Z,10.57
2019-04-28T19:08:13.091Z,3.27
2019-04-28T19:11:01.889Z,6.70
2019-04-28T19:13:31.971Z,6.27
2019-04-28T19:16:14.127Z,5.50
2019-04-28T19:18:44.203Z,4.60
2019-04-28T19:21:12.660Z,4.63
2019-04-28T19:23:41.101Z,9.47
2019-04-28T19:26:09.550Z,6.90
2019-04-28T19:28:37.981Z,4.17
2019-04-28T19:31:06.710Z,8.80
2019-04-28T19:33:35.175Z,8.57
2019-04-28T19:36:03.680Z,4.20
2019-04-28T19:38:32.133Z,3.73
2019-04-28T19:41:00.563Z,2.43
2019-04-28T19:43:29.034Z,3.43
2019-04-28T19:45:59.112Z,9.90
2019-04-28T19:48:27.567Z,10.23
2019-04-28T19:50:56.009Z,2.83
2019-04-28T19:53:24.466Z,6.60
2019-04-28T19:55:57.532Z,5.90
2019-04-28T19:58:36.934Z,8.23
2019-04-28T20:01:07.293Z,6.30
2019-04-28T20:03:35.742Z,3.10
2019-04-28T20:06:05.448Z,4.00
2019-04-28T20:08:33.891Z,9.70
2019-04-28T20:11:02.324Z,6.17
2019-04-28T20:13:31.523Z,2.83
2019-04-28T20:16:00.086Z,7.20
2019-04-28T20:18:29.589Z,6.13
2019-04-28T20:20:58.213Z,3.30
2019-04-28T20:23:26.676Z,5.17
2019-04-28T20:25:55.193Z,8.70
2019-04-28T20:28:23.647Z,5.23
2019-04-28T20:30:52.082Z,10.20
2019-04-28T20:33:20.619Z,6.20
2019-04-28T20:35:50.683Z,3.83
2019-04-28T20:38:23.510Z,6.50
2019-04-28T20:40:56.638Z,4.17
2019-04-28T20:43:26.654Z,10.60
2019-04-28T20:45:55.114Z,9.80
2019-04-28T20:48:23.562Z,8.20
2019-04-28T20:50:52.075Z,8.80
2019-04-28T20:53:20.557Z,3.57
2019-04-28T20:55:48.987Z,6.33
2019-04-28T20:58:17.457Z,3.70
2019-04-28T21:00:46.806Z,3.23
2019-04-28T21:03:15.243Z,8.43
2019-04-28T21:05:43.687Z,5.17
2019-04-28T21:08:12.135Z,5.73
2019-04-28T21:10:40.604Z,3.43
2019-04-28T21:13:09.044Z,4.70
2019-04-28T21:15:37.476Z,6.50
2019-04-28T21:18:06.196Z,5.17
2019-04-28T21:20:34.645Z,3.57
2019-04-28T21:23:03.077Z,6.10
2019-04-28T21:25:31.524Z,4.87
2019-04-28T21:27:59.963Z,5.10
2019-04-28T21:30:28.444Z,4.73
2019-04-28T21:32:56.893Z,7.60
2019-04-28T21:35:25.708Z,7.00
2019-04-28T21:37:54.156Z,4.73
2019-04-28T21:40:23.002Z,4.70
2019-04-28T21:43:11.327Z,5.10
2019-04-28T21:45:59.366Z,4.53
2019-04-28T21:48:41.757Z,10.73
2019-04-28T21:51:12.103Z,8.60
2019-04-28T21:53:40.493Z,3.27
2019-04-28T21:56:08.995Z,7.70
2019-04-28T21:58:37.454Z,6.47
2019-04-28T22:01:07.108Z,6.53
2019-04-28T22:03:35.741Z,9.27
2019-04-28T22:06:04.262Z,4.30
2019-04-28T22:08:32.693Z,4.27
2019-04-28T22:11:01.319Z,4.47
2019-04-28T22:13:29.769Z,2.60
2019-04-28T22:15:58.293Z,3.47
2019-04-28T22:18:26.790Z,7.47
2019-04-28T22:20:55.233Z,6.47
2019-04-28T22:23:25.321Z,4.60
2019-04-28T22:25:53.763Z,3.27
2019-04-28T22:28:22.210Z,6.23
2019-04-28T22:30:50.661Z,3.73
2019-04-28T22:33:19.184Z,6.73
2019-04-28T22:35:47.659Z,4.77
2019-04-28T22:38:16.094Z,4.30
2019-04-28T22:40:44.533Z,3.00
2019-04-28T22:43:13.059Z,3.17
2019-04-28T22:45:41.515Z,5.33
2019-04-28T22:48:11.651Z,4.07
2019-04-28T22:50:45.559Z,4.43
2019-04-28T22:53:15.645Z,3.50
2019-04-28T22:55:48.440Z,2.83
2019-04-28T22:58:21.463Z,4.10
2019-04-28T23:00:53.271Z,10.90
2019-04-28T23:03:23.483Z,3.80
2019-04-28T23:05:51.920Z,3.33
2019-04-28T23:08:20.462Z,3.00
2019-04-28T23:10:48.894Z,10.30
2019-04-28T23:13:17.351Z,4.20
2019-04-28T23:15:45.798Z,4.13
2019-04-28T23:18:14.303Z,3.80
2019-04-28T23:20:44.398Z,10.90
2019-04-28T23:23:12.835Z,7.17
2019-04-28T23:25:41.283Z,3.67
2019-04-28T23:28:09.783Z,3.80
2019-04-28T23:30:41.580Z,5.87
2019-04-28T23:33:10.115Z,7.33
2019-04-28T23:35:38.831Z,7.40
2019-04-28T23:38:07.299Z,4.50
2019-04-28T23:40:37.451Z,8.73
2019-04-28T23:43:13.289Z,3.10
2019-04-28T23:45:41.838Z,3.10
2019-04-28T23:48:10.273Z,6.80
2019-04-28T23:50:40.355Z,6.80
2019-04-28T23:53:10.460Z,7.10
2019-04-28T23:55:38.970Z,7.20
2019-04-28T23:58:07.429Z,3.80
